Flight Track Log - Related Links

Times and Time Zones

All times are in EST time to prevent confusion due to time zone crossing. See the FIN666 flight status page for this flight to view local times or setup timezone preferences in your user account.

Time Position Orientation Groundspeed Altitude Reporting Facility
EST Latitude Longitude Course Direction KTS MPH feet Rate Location/Type
Thu 07:24:00 AM 55.8453 13.1259 49° Northeast  Level Estimated
Thu 07:25:00 AM 55.9207 13.2838 50° Northeast  Level Estimated
Thu 07:26:00 AM 55.9958 13.4423 50° Northeast  Level Estimated
Thu 07:27:00 AM 56.0708 13.6014 50° Northeast  Level Estimated
Thu 07:28:00 AM 56.1456 13.7611 50° Northeast  Level Estimated
Thu 07:29:00 AM 56.2202 13.9214 50° Northeast  Level Estimated
Thu 07:30:00 AM 56.2945 14.0824 50° Northeast  Level Estimated
Thu 07:31:00 AM 56.3687 14.2440 50° Northeast  Level Estimated
Thu 07:32:00 AM 56.4426 14.4062 50° Northeast  Level Estimated
Thu 07:33:00 AM 56.5163 14.5690 51° Northeast  Level Estimated
Thu 07:34:00 AM 56.5899 14.7325 51° Northeast  Level Estimated
Thu 07:35:00 AM 56.6632 14.8967 51° Northeast  Level Estimated
Thu 07:36:00 AM 56.7362 15.0614 51° Northeast  Level Estimated
Thu 07:37:00 AM 56.8091 15.2268 51° Northeast  Level Estimated
Thu 07:38:00 AM 56.8817 15.3928 51° Northeast  Level Estimated
Thu 07:39:00 AM 56.9542 15.5595 51° Northeast  Level Estimated
Thu 07:40:00 AM 57.0264 15.7269 52° Northeast  Level Estimated
Thu 07:41:00 AM 57.0983 15.8949 52° Northeast  Level Estimated
Thu 07:42:00 AM 57.1711 16.0660 52° Northeast  Level Estimated
Thu 07:43:00 AM 57.2437 16.2378 52° Northeast  Level Estimated
Thu 07:44:00 AM 57.3160 16.4103 52° Northeast  Level Estimated
Thu 07:45:00 AM 57.3881 16.5834 52° Northeast  Level Estimated
Thu 07:46:00 AM 57.4600 16.7573 52° Northeast  Level Estimated
Thu 07:47:00 AM 57.5316 16.9318 53° Northeast  Level Estimated
Thu 07:48:00 AM 57.6030 17.1070 53° Northeast  Level Estimated
Thu 07:49:00 AM 57.6741 17.2829 53° Northeast  Level Estimated
Thu 07:50:00 AM 57.7450 17.4595 53° Northeast  Level Estimated
Thu 07:51:00 AM 57.8157 17.6368 53° Northeast  Level Estimated
Thu 07:52:00 AM 57.8861 17.8148 53° Northeast  Level Estimated
Thu 07:53:00 AM 57.9562 17.9934 53° Northeast  Level Estimated
Thu 07:54:00 AM 58.0261 18.1728 54° Northeast  Level Estimated
Thu 07:55:00 AM 58.0957 18.3529 54° Northeast  Level Estimated
Thu 07:56:00 AM 58.1651 18.5336 54° Northeast  Level Estimated
Thu 07:57:00 AM 58.2342 18.7151 54° Northeast  Level Estimated
Thu 07:58:00 AM 58.3031 18.8973 54° Northeast  Level Estimated
Thu 07:59:00 AM 58.3717 19.0802 54° Northeast  Level Estimated
Thu 08:00:00 AM 58.4401 19.2638 55° Northeast  Level Estimated
Thu 08:01:00 AM 58.5081 19.4481 55° Northeast  Level Estimated
Thu 08:02:00 AM 58.5760 19.6332 55° Northeast  Level Estimated
Thu 08:03:00 AM 58.6435 19.8189 55° Northeast  Level Estimated
Thu 08:04:00 AM 58.7108 20.0054 55° Northeast  Level Estimated
Thu 08:05:00 AM 58.7778 20.1926 55° Northeast  Level Estimated
Thu 08:06:00 AM 58.8445 20.3805 55° Northeast  Level Estimated
Thu 08:07:00 AM 58.9110 20.5691 56° Northeast  Level Estimated
Thu 08:08:00 AM 58.9772 20.7585 56° Northeast  Level Estimated
Thu 08:09:00 AM 59.0431 20.9486 56° Northeast  Level Estimated
Thu 08:10:00 AM 59.1087 21.1394 56° Northeast  Level Estimated
Thu 08:11:00 AM 59.1741 21.3309 56° Northeast  Level Estimated
Thu 08:12:00 AM 59.2392 21.5232 56° Northeast  Level Estimated
Thu 08:13:00 AM 59.3040 21.7162 57° Northeast  Level Estimated
Thu 08:14:00 AM 59.3685 21.9100 57° Northeast  Level Estimated
Thu 08:15:00 AM 59.4327 22.1045 57° Northeast  Level Estimated
Thu 08:16:00 AM 59.4966 22.2997 57° Northeast  Level Estimated
Thu 08:17:00 AM 59.5602 22.4956 57° Northeast  Level Estimated
Thu 08:18:00 AM 59.6236 22.6923 57° Northeast  Level Estimated
Thu 08:19:00 AM 59.6866 22.8898 58° Northeast  Level Estimated
Thu 08:20:00 AM 59.7493 23.0880 58° Northeast  Level Estimated
Thu 08:21:00 AM 59.8118 23.2869 58° Northeast  Level Estimated
Thu 08:22:00 AM 59.8739 23.4866 58° Northeast  Level Estimated
Thu 08:23:00 AM 59.9358 23.6870 58° Northeast  Level Estimated
Thu 08:24:00 AM 59.9973 23.8882 58° Northeast  Level Estimated
Thu 08:25:00 AM 60.0585 24.0901 59° Northeast  Level Estimated
Thu 08:26:00 AM 60.1194 24.2928 59° Northeast  Level Estimated
Thu 08:27:00 AM 60.1800 24.4962 59° Northeast  Level Estimated
Thu 08:28:00 AM 60.2403 24.7003 59° Northeast  Level Estimated
Thu 08:29:00 AM 60.3003 24.9053 59° Northeast  Level Estimated
Thu 08:30:00 AM 60.3172 24.9633 60° Northeast  Level Estimated
Thu 08:31:00 AM 60.3172 24.9633 37° Northeast  Level Estimated
Thu 08:32:00 AM 60.3172 24.9633 37° Northeast  Level Estimated
Thu 08:33:00 AM 60.3172 24.9633 37° Northeast  Level Estimated
Thu 08:34:00 AM 60.3172 24.9633 37° Northeast  Level Estimated
Thu 08:35:00 AM 60.3172 24.9633 37° Northeast  Level Estimated
Thu 08:36:00 AM 60.3172 24.9633 37° Northeast  Level Estimated
Thu 08:37:00 AM 60.3172 24.9633 37° Northeast  Level Estimated
Thu 08:38:00 AM 60.3172 24.9633 37° Northeast  Level Estimated
Thu 08:39:00 AM 60.3172 24.9633 37° Northeast  Level Estimated

Login

Don't have an account? Register now (free) for customized features, flight alerts, and more!